sensor_id;sensor_type;location;lat;lon;timestamp;temperature;humidity
37285;DHT22;23172;53.550;9.964;2023-05-21T00:02:30;16.20;66.00
37285;DHT22;23172;53.550;9.964;2023-05-21T00:07:35;16.10;65.50
37285;DHT22;23172;53.550;9.964;2023-05-21T00:12:37;16.00;65.80
37285;DHT22;23172;53.550;9.964;2023-05-21T00:17:38;16.00;65.90
37285;DHT22;23172;53.550;9.964;2023-05-21T00:22:42;16.00;66.20
37285;DHT22;23172;53.550;9.964;2023-05-21T00:27:44;15.90;66.40
37285;DHT22;23172;53.550;9.964;2023-05-21T00:32:46;15.90;66.80
37285;DHT22;23172;53.550;9.964;2023-05-21T00:37:49;15.90;67.00
37285;DHT22;23172;53.550;9.964;2023-05-21T00:42:52;15.90;67.90
37285;DHT22;23172;53.550;9.964;2023-05-21T00:47:56;15.90;67.40
37285;DHT22;23172;53.550;9.964;2023-05-21T00:53:00;15.80;67.40
37285;DHT22;23172;53.550;9.964;2023-05-21T00:58:02;15.80;67.50
37285;DHT22;23172;53.550;9.964;2023-05-21T01:03:04;15.80;67.70
37285;DHT22;23172;53.550;9.964;2023-05-21T01:08:08;15.70;67.90
37285;DHT22;23172;53.550;9.964;2023-05-21T01:13:10;15.70;68.20
37285;DHT22;23172;53.550;9.964;2023-05-21T01:18:12;15.70;68.40
37285;DHT22;23172;53.550;9.964;2023-05-21T01:23:17;15.70;68.70
37285;DHT22;23172;53.550;9.964;2023-05-21T01:28:19;15.70;68.90
37285;DHT22;23172;53.550;9.964;2023-05-21T01:33:31;15.60;69.30
37285;DHT22;23172;53.550;9.964;2023-05-21T01:38:39;15.60;69.40
37285;DHT22;23172;53.550;9.964;2023-05-21T01:43:44;15.60;69.40
37285;DHT22;23172;53.550;9.964;2023-05-21T01:48:48;15.60;69.60
37285;DHT22;23172;53.550;9.964;2023-05-21T01:53:51;15.50;69.80
37285;DHT22;23172;53.550;9.964;2023-05-21T01:58:54;15.50;70.10
37285;DHT22;23172;53.550;9.964;2023-05-21T02:03:58;15.50;70.30
37285;DHT22;23172;53.550;9.964;2023-05-21T02:09:02;15.50;70.70
37285;DHT22;23172;53.550;9.964;2023-05-21T02:14:04;15.40;70.90
37285;DHT22;23172;53.550;9.964;2023-05-21T02:19:07;15.40;71.10
37285;DHT22;23172;53.550;9.964;2023-05-21T02:24:11;15.50;71.50
37285;DHT22;23172;53.550;9.964;2023-05-21T02:29:13;15.40;71.90
37285;DHT22;23172;53.550;9.964;2023-05-21T02:34:15;15.40;72.20
37285;DHT22;23172;53.550;9.964;2023-05-21T02:39:18;15.40;72.50
37285;DHT22;23172;53.550;9.964;2023-05-21T02:44:20;15.40;72.70
37285;DHT22;23172;53.550;9.964;2023-05-21T02:49:23;15.30;73.20
37285;DHT22;23172;53.550;9.964;2023-05-21T02:54:26;15.30;73.50
37285;DHT22;23172;53.550;9.964;2023-05-21T02:59:28;15.20;74.00
37285;DHT22;23172;53.550;9.964;2023-05-21T03:04:30;15.20;74.50
37285;DHT22;23172;53.550;9.964;2023-05-21T03:09:34;15.20;75.00
37285;DHT22;23172;53.550;9.964;2023-05-21T03:14:35;15.20;75.40
37285;DHT22;23172;53.550;9.964;2023-05-21T03:19:38;15.20;75.70
37285;DHT22;23172;53.550;9.964;2023-05-21T03:24:41;15.20;75.80
37285;DHT22;23172;53.550;9.964;2023-05-21T03:29:44;15.20;76.10
37285;DHT22;23172;53.550;9.964;2023-05-21T03:34:46;15.20;76.40
37285;DHT22;23172;53.550;9.964;2023-05-21T03:39:49;15.20;77.00
37285;DHT22;23172;53.550;9.964;2023-05-21T03:44:51;15.10;77.40
37285;DHT22;23172;53.550;9.964;2023-05-21T03:49:53;15.10;77.80
37285;DHT22;23172;53.550;9.964;2023-05-21T03:54:56;15.10;78.10
37285;DHT22;23172;53.550;9.964;2023-05-21T03:59:58;15.20;78.70
37285;DHT22;23172;53.550;9.964;2023-05-21T04:05:00;15.20;79.00
37285;DHT22;23172;53.550;9.964;2023-05-21T04:10:05;15.20;79.20
37285;DHT22;23172;53.550;9.964;2023-05-21T04:15:07;15.30;79.70
37285;DHT22;23172;53.550;9.964;2023-05-21T04:20:10;15.40;79.60
37285;DHT22;23172;53.550;9.964;2023-05-21T04:25:14;15.40;79.60
37285;DHT22;23172;53.550;9.964;2023-05-21T04:30:16;15.50;79.70
37285;DHT22;23172;53.550;9.964;2023-05-21T04:35:19;15.60;79.90
37285;DHT22;23172;53.550;9.964;2023-05-21T04:40:22;15.60;79.90
37285;DHT22;23172;53.550;9.964;2023-05-21T04:45:24;15.70;79.80
37285;DHT22;23172;53.550;9.964;2023-05-21T04:50:26;15.80;79.80
37285;DHT22;23172;53.550;9.964;2023-05-21T04:55:31;15.90;79.80
37285;DHT22;23172;53.550;9.964;2023-05-21T05:00:36;15.90;80.00
37285;DHT22;23172;53.550;9.964;2023-05-21T05:05:38;16.10;80.10
37285;DHT22;23172;53.550;9.964;2023-05-21T05:10:41;16.20;79.90
37285;DHT22;23172;53.550;9.964;2023-05-21T05:15:43;16.30;79.90
37285;DHT22;23172;53.550;9.964;2023-05-21T05:20:46;16.30;79.80
37285;DHT22;23172;53.550;9.964;2023-05-21T05:25:49;16.40;79.90
37285;DHT22;23172;53.550;9.964;2023-05-21T05:30:51;16.50;79.80
37285;DHT22;23172;53.550;9.964;2023-05-21T05:35:53;16.50;79.90
37285;DHT22;23172;53.550;9.964;2023-05-21T05:40:56;16.60;79.80
37285;DHT22;23172;53.550;9.964;2023-05-21T05:45:58;16.60;80.00
37285;DHT22;23172;53.550;9.964;2023-05-21T05:51:00;16.70;80.20
37285;DHT22;23172;53.550;9.964;2023-05-21T05:56:04;16.70;80.40
37285;DHT22;23172;53.550;9.964;2023-05-21T06:01:05;16.80;80.30
37285;DHT22;23172;53.550;9.964;2023-05-21T06:06:07;16.80;80.30
37285;DHT22;23172;53.550;9.964;2023-05-21T06:11:10;17.00;80.40
37285;DHT22;23172;53.550;9.964;2023-05-21T06:16:12;17.30;80.10
37285;DHT22;23172;53.550;9.964;2023-05-21T06:21:15;17.60;79.20
37285;DHT22;23172;53.550;9.964;2023-05-21T06:26:18;17.80;78.60
37285;DHT22;23172;53.550;9.964;2023-05-21T06:31:21;18.10;78.10
37285;DHT22;23172;53.550;9.964;2023-05-21T06:36:24;18.40;76.80
37285;DHT22;23172;53.550;9.964;2023-05-21T06:41:30;18.60;75.80
37285;DHT22;23172;53.550;9.964;2023-05-21T06:46:32;18.70;75.40
37285;DHT22;23172;53.550;9.964;2023-05-21T06:51:34;18.90;75.00
37285;DHT22;23172;53.550;9.964;2023-05-21T06:56:38;19.00;74.40
37285;DHT22;23172;53.550;9.964;2023-05-21T07:01:40;19.20;74.00
37285;DHT22;23172;53.550;9.964;2023-05-21T07:06:43;19.40;73.30
37285;DHT22;23172;53.550;9.964;2023-05-21T07:11:46;19.50;72.90
37285;DHT22;23172;53.550;9.964;2023-05-21T07:16:48;19.70;72.10
37285;DHT22;23172;53.550;9.964;2023-05-21T07:21:50;19.90;71.70
37285;DHT22;23172;53.550;9.964;2023-05-21T07:26:53;20.00;71.60
37285;DHT22;23172;53.550;9.964;2023-05-21T07:31:55;20.30;71.10
37285;DHT22;23172;53.550;9.964;2023-05-21T07:36:57;20.50;70.10
37285;DHT22;23172;53.550;9.964;2023-05-21T07:42:00;20.60;69.80
37285;DHT22;23172;53.550;9.964;2023-05-21T07:47:02;20.80;69.30
37285;DHT22;23172;53.550;9.964;2023-05-21T07:52:05;21.00;68.70
37285;DHT22;23172;53.550;9.964;2023-05-21T07:57:08;21.60;67.50
37285;DHT22;23172;53.550;9.964;2023-05-21T08:02:10;22.20;66.10
37285;DHT22;23172;53.550;9.964;2023-05-21T08:07:12;22.60;64.60
37285;DHT22;23172;53.550;9.964;2023-05-21T08:12:17;22.90;63.90
37285;DHT22;23172;53.550;9.964;2023-05-21T08:17:19;23.40;62.50
37285;DHT22;23172;53.550;9.964;2023-05-21T08:22:21;24.00;61.00
37285;DHT22;23172;53.550;9.964;2023-05-21T08:27:24;24.40;59.70
37285;DHT22;23172;53.550;9.964;2023-05-21T08:32:26;24.70;58.70
37285;DHT22;23172;53.550;9.964;2023-05-21T08:37:28;24.90;58.30
37285;DHT22;23172;53.550;9.964;2023-05-21T08:42:42;25.20;57.40
37285;DHT22;23172;53.550;9.964;2023-05-21T08:47:45;25.40;56.40
37285;DHT22;23172;53.550;9.964;2023-05-21T08:52:47;25.40;56.20
37285;DHT22;23172;53.550;9.964;2023-05-21T08:57:53;25.30;56.10
37285;DHT22;23172;53.550;9.964;2023-05-21T09:02:55;25.10;56.00
37285;DHT22;23172;53.550;9.964;2023-05-21T09:08:04;25.20;55.90
37285;DHT22;23172;53.550;9.964;2023-05-21T09:13:09;25.20;55.60
37285;DHT22;23172;53.550;9.964;2023-05-21T09:18:12;25.40;55.60
37285;DHT22;23172;53.550;9.964;2023-05-21T09:23:16;25.60;55.20
37285;DHT22;23172;53.550;9.964;2023-05-21T09:28:20;25.60;55.00
37285;DHT22;23172;53.550;9.964;2023-05-21T09:33:25;25.70;55.10
37285;DHT22;23172;53.550;9.964;2023-05-21T09:38:28;26.20;54.80
37285;DHT22;23172;53.550;9.964;2023-05-21T09:43:32;27.10;53.90
37285;DHT22;23172;53.550;9.964;2023-05-21T09:48:35;28.00;52.60
37285;DHT22;23172;53.550;9.964;2023-05-21T09:53:42;28.80;51.30
37285;DHT22;23172;53.550;9.964;2023-05-21T09:58:46;30.20;49.40
37285;DHT22;23172;53.550;9.964;2023-05-21T10:03:52;31.50;47.30
37285;DHT22;23172;53.550;9.964;2023-05-21T10:08:56;32.50;45.30
37285;DHT22;23172;53.550;9.964;2023-05-21T10:14:04;32.80;44.50
37285;DHT22;23172;53.550;9.964;2023-05-21T10:19:06;33.80;42.80
37285;DHT22;23172;53.550;9.964;2023-05-21T10:24:10;34.40;41.70
37285;DHT22;23172;53.550;9.964;2023-05-21T10:29:14;35.00;40.80
37285;DHT22;23172;53.550;9.964;2023-05-21T10:34:16;36.30;39.20
37285;DHT22;23172;53.550;9.964;2023-05-21T10:39:21;37.50;37.60
37285;DHT22;23172;53.550;9.964;2023-05-21T10:44:33;38.90;35.80
37285;DHT22;23172;53.550;9.964;2023-05-21T10:49:58;40.00;33.90
37285;DHT22;23172;53.550;9.964;2023-05-21T10:55:12;41.20;31.90
37285;DHT22;23172;53.550;9.964;2023-05-21T11:00:19;42.50;30.90
37285;DHT22;23172;53.550;9.964;2023-05-21T11:05:51;43.60;29.70
37285;DHT22;23172;53.550;9.964;2023-05-21T11:10:55;44.70;27.30
37285;DHT22;23172;53.550;9.964;2023-05-21T11:16:06;45.70;27.60
37285;DHT22;23172;53.550;9.964;2023-05-21T11:21:09;46.70;26.40
37285;DHT22;23172;53.550;9.964;2023-05-21T11:26:11;47.50;25.90
37285;DHT22;23172;53.550;9.964;2023-05-21T11:31:23;48.00;25.40
37285;DHT22;23172;53.550;9.964;2023-05-21T11:36:27;48.20;24.70
37285;DHT22;23172;53.550;9.964;2023-05-21T11:41:29;48.20;24.60
37285;DHT22;23172;53.550;9.964;2023-05-21T11:46:33;47.40;24.70
37285;DHT22;23172;53.550;9.964;2023-05-21T11:51:35;46.40;25.00
37285;DHT22;23172;53.550;9.964;2023-05-21T11:56:37;46.20;25.10
37285;DHT22;23172;53.550;9.964;2023-05-21T12:01:43;45.50;25.50
37285;DHT22;23172;53.550;9.964;2023-05-21T12:06:45;44.80;25.90
37285;DHT22;23172;53.550;9.964;2023-05-21T12:11:47;43.50;26.60
37285;DHT22;23172;53.550;9.964;2023-05-21T12:16:52;43.00;27.00
37285;DHT22;23172;53.550;9.964;2023-05-21T12:21:54;42.70;27.80
37285;DHT22;23172;53.550;9.964;2023-05-21T12:26:57;42.40;27.50
37285;DHT22;23172;53.550;9.964;2023-05-21T12:32:03;41.50;28.10
37285;DHT22;23172;53.550;9.964;2023-05-21T12:37:06;40.40;29.10
37285;DHT22;23172;53.550;9.964;2023-05-21T12:42:08;39.20;29.90
37285;DHT22;23172;53.550;9.964;2023-05-21T12:47:12;38.20;31.20
37285;DHT22;23172;53.550;9.964;2023-05-21T12:52:17;37.00;32.70
37285;DHT22;23172;53.550;9.964;2023-05-21T12:57:20;35.90;34.30
37285;DHT22;23172;53.550;9.964;2023-05-21T13:02:26;34.80;35.80
37285;DHT22;23172;53.550;9.964;2023-05-21T13:07:30;34.40;36.40
37285;DHT22;23172;53.550;9.964;2023-05-21T13:12:33;34.00;37.20
37285;DHT22;23172;53.550;9.964;2023-05-21T13:17:36;33.60;38.10
37285;DHT22;23172;53.550;9.964;2023-05-21T13:22:39;33.30;38.70
37285;DHT22;23172;53.550;9.964;2023-05-21T13:27:43;32.80;39.60
37285;DHT22;23172;53.550;9.964;2023-05-21T13:32:46;32.40;40.40
37285;DHT22;23172;53.550;9.964;2023-05-21T13:37:48;32.20;41.00
37285;DHT22;23172;53.550;9.964;2023-05-21T13:42:50;32.10;41.20
37285;DHT22;23172;53.550;9.964;2023-05-21T13:47:54;31.90;41.70
37285;DHT22;23172;53.550;9.964;2023-05-21T13:52:56;31.70;42.10
37285;DHT22;23172;53.550;9.964;2023-05-21T13:57:58;31.50;42.60
37285;DHT22;23172;53.550;9.964;2023-05-21T14:03:01;31.50;43.00
37285;DHT22;23172;53.550;9.964;2023-05-21T14:08:06;31.40;43.30
37285;DHT22;23172;53.550;9.964;2023-05-21T14:13:07;31.10;43.70
37285;DHT22;23172;53.550;9.964;2023-05-21T14:18:11;31.00;44.10
37285;DHT22;23172;53.550;9.964;2023-05-21T14:23:13;30.90;44.30
37285;DHT22;23172;53.550;9.964;2023-05-21T14:28:15;30.80;44.30
37285;DHT22;23172;53.550;9.964;2023-05-21T14:33:18;30.70;44.30
37285;DHT22;23172;53.550;9.964;2023-05-21T14:38:20;30.70;44.60
37285;DHT22;23172;53.550;9.964;2023-05-21T14:43:22;30.40;44.80
37285;DHT22;23172;53.550;9.964;2023-05-21T14:48:25;30.20;45.30
37285;DHT22;23172;53.550;9.964;2023-05-21T14:53:27;30.00;45.30
37285;DHT22;23172;53.550;9.964;2023-05-21T14:58:29;29.80;45.90
37285;DHT22;23172;53.550;9.964;2023-05-21T15:03:32;29.60;46.10
37285;DHT22;23172;53.550;9.964;2023-05-21T15:08:34;29.50;46.10
37285;DHT22;23172;53.550;9.964;2023-05-21T15:13:37;29.40;46.50
37285;DHT22;23172;53.550;9.964;2023-05-21T15:18:40;29.30;46.60
37285;DHT22;23172;53.550;9.964;2023-05-21T15:23:42;29.30;46.70
37285;DHT22;23172;53.550;9.964;2023-05-21T15:28:44;29.10;46.90
37285;DHT22;23172;53.550;9.964;2023-05-21T15:33:47;29.10;47.20
37285;DHT22;23172;53.550;9.964;2023-05-21T15:38:49;28.90;47.50
37285;DHT22;23172;53.550;9.964;2023-05-21T15:43:51;28.80;48.50
37285;DHT22;23172;53.550;9.964;2023-05-21T15:48:54;28.60;48.30
37285;DHT22;23172;53.550;9.964;2023-05-21T15:53:56;28.40;48.60
37285;DHT22;23172;53.550;9.964;2023-05-21T15:58:58;28.30;48.90
37285;DHT22;23172;53.550;9.964;2023-05-21T16:04:02;28.30;48.90
37285;DHT22;23172;53.550;9.964;2023-05-21T16:09:04;28.30;49.00
37285;DHT22;23172;53.550;9.964;2023-05-21T16:14:06;28.20;49.30
37285;DHT22;23172;53.550;9.964;2023-05-21T16:19:09;28.10;49.60
37285;DHT22;23172;53.550;9.964;2023-05-21T16:24:11;27.90;49.80
37285;DHT22;23172;53.550;9.964;2023-05-21T16:29:13;27.80;50.00
37285;DHT22;23172;53.550;9.964;2023-05-21T16:34:16;27.70;50.30
37285;DHT22;23172;53.550;9.964;2023-05-21T16:39:18;27.60;50.60
37285;DHT22;23172;53.550;9.964;2023-05-21T16:44:20;27.40;50.80
37285;DHT22;23172;53.550;9.964;2023-05-21T16:49:23;27.40;51.10
37285;DHT22;23172;53.550;9.964;2023-05-21T16:54:26;27.30;51.10
37285;DHT22;23172;53.550;9.964;2023-05-21T16:59:27;27.20;51.20
37285;DHT22;23172;53.550;9.964;2023-05-21T17:04:30;27.10;51.50
37285;DHT22;23172;53.550;9.964;2023-05-21T17:09:35;27.00;51.70
37285;DHT22;23172;53.550;9.964;2023-05-21T17:14:38;26.90;51.90
37285;DHT22;23172;53.550;9.964;2023-05-21T17:19:41;27.40;51.80
37285;DHT22;23172;53.550;9.964;2023-05-21T17:24:43;27.00;52.20
37285;DHT22;23172;53.550;9.964;2023-05-21T17:29:45;26.70;52.60
37285;DHT22;23172;53.550;9.964;2023-05-21T17:34:48;26.60;52.90
37285;DHT22;23172;53.550;9.964;2023-05-21T17:39:52;26.40;53.00
37285;DHT22;23172;53.550;9.964;2023-05-21T17:44:54;26.30;53.10
37285;DHT22;23172;53.550;9.964;2023-05-21T17:49:57;26.10;53.50
37285;DHT22;23172;53.550;9.964;2023-05-21T17:55:00;25.90;53.90
37285;DHT22;23172;53.550;9.964;2023-05-21T18:00:02;25.80;54.10
37285;DHT22;23172;53.550;9.964;2023-05-21T18:05:07;25.70;54.40
37285;DHT22;23172;53.550;9.964;2023-05-21T18:10:09;25.60;54.70
37285;DHT22;23172;53.550;9.964;2023-05-21T18:15:12;25.60;54.90
37285;DHT22;23172;53.550;9.964;2023-05-21T18:20:16;25.50;55.10
37285;DHT22;23172;53.550;9.964;2023-05-21T18:25:18;25.40;55.30
37285;DHT22;23172;53.550;9.964;2023-05-21T18:30:19;25.30;55.50
37285;DHT22;23172;53.550;9.964;2023-05-21T18:35:23;25.20;55.90
37285;DHT22;23172;53.550;9.964;2023-05-21T18:40:26;25.00;56.10
37285;DHT22;23172;53.550;9.964;2023-05-21T18:45:28;24.90;57.00
37285;DHT22;23172;53.550;9.964;2023-05-21T18:50:31;24.80;56.70
37285;DHT22;23172;53.550;9.964;2023-05-21T18:55:34;24.70;57.10
37285;DHT22;23172;53.550;9.964;2023-05-21T19:00:36;24.60;57.50
37285;DHT22;23172;53.550;9.964;2023-05-21T19:05:40;24.50;58.10
37285;DHT22;23172;53.550;9.964;2023-05-21T19:10:42;24.40;58.70
37285;DHT22;23172;53.550;9.964;2023-05-21T19:15:44;24.30;59.00
37285;DHT22;23172;53.550;9.964;2023-05-21T19:20:49;24.20;59.40
37285;DHT22;23172;53.550;9.964;2023-05-21T19:25:51;24.10;60.10
37285;DHT22;23172;53.550;9.964;2023-05-21T19:30:52;24.00;60.50
37285;DHT22;23172;53.550;9.964;2023-05-21T19:35:56;24.00;61.30
37285;DHT22;23172;53.550;9.964;2023-05-21T19:40:58;23.90;61.60
37285;DHT22;23172;53.550;9.964;2023-05-21T19:45:59;23.80;61.90
37285;DHT22;23172;53.550;9.964;2023-05-21T19:51:03;23.70;62.50
37285;DHT22;23172;53.550;9.964;2023-05-21T19:56:05;23.70;62.70
37285;DHT22;23172;53.550;9.964;2023-05-21T20:01:07;23.70;63.20
37285;DHT22;23172;53.550;9.964;2023-05-21T20:06:11;23.60;63.70
37285;DHT22;23172;53.550;9.964;2023-05-21T20:11:14;23.60;64.30
37285;DHT22;23172;53.550;9.964;2023-05-21T20:16:17;23.50;64.60
37285;DHT22;23172;53.550;9.964;2023-05-21T20:21:21;23.50;65.20
37285;DHT22;23172;53.550;9.964;2023-05-21T20:26:23;23.40;65.40
37285;DHT22;23172;53.550;9.964;2023-05-21T20:31:25;23.40;65.90
37285;DHT22;23172;53.550;9.964;2023-05-21T20:36:29;23.40;66.70
37285;DHT22;23172;53.550;9.964;2023-05-21T20:41:33;23.30;67.00
37285;DHT22;23172;53.550;9.964;2023-05-21T20:46:37;23.30;68.60
37285;DHT22;23172;53.550;9.964;2023-05-21T20:51:40;23.20;68.30
37285;DHT22;23172;53.550;9.964;2023-05-21T20:56:42;23.10;68.70
37285;DHT22;23172;53.550;9.964;2023-05-21T21:01:44;23.10;69.10
37285;DHT22;23172;53.550;9.964;2023-05-21T21:06:47;23.10;69.30
37285;DHT22;23172;53.550;9.964;2023-05-21T21:11:49;23.00;69.60
37285;DHT22;23172;53.550;9.964;2023-05-21T21:16:52;23.00;70.00
37285;DHT22;23172;53.550;9.964;2023-05-21T21:21:55;22.90;70.90
37285;DHT22;23172;53.550;9.964;2023-05-21T21:26:57;22.90;70.10
37285;DHT22;23172;53.550;9.964;2023-05-21T21:31:59;22.90;69.90
37285;DHT22;23172;53.550;9.964;2023-05-21T21:37:03;22.90;69.90
37285;DHT22;23172;53.550;9.964;2023-05-21T21:42:05;22.90;69.80
37285;DHT22;23172;53.550;9.964;2023-05-21T21:47:07;22.90;69.60
37285;DHT22;23172;53.550;9.964;2023-05-21T21:52:10;22.90;69.50
37285;DHT22;23172;53.550;9.964;2023-05-21T21:57:14;22.80;69.40
37285;DHT22;23172;53.550;9.964;2023-05-21T22:02:15;22.80;69.30
37285;DHT22;23172;53.550;9.964;2023-05-21T22:07:19;22.80;69.20
37285;DHT22;23172;53.550;9.964;2023-05-21T22:12:21;22.70;69.10
37285;DHT22;23172;53.550;9.964;2023-05-21T22:17:23;22.70;69.40
37285;DHT22;23172;53.550;9.964;2023-05-21T22:22:26;22.60;69.60
37285;DHT22;23172;53.550;9.964;2023-05-21T22:27:28;22.60;69.70
37285;DHT22;23172;53.550;9.964;2023-05-21T22:32:30;22.50;69.80
37285;DHT22;23172;53.550;9.964;2023-05-21T22:37:33;22.50;70.00
37285;DHT22;23172;53.550;9.964;2023-05-21T22:42:37;22.40;70.20
37285;DHT22;23172;53.550;9.964;2023-05-21T22:47:39;22.30;70.20
37285;DHT22;23172;53.550;9.964;2023-05-21T22:52:42;22.30;70.10
37285;DHT22;23172;53.550;9.964;2023-05-21T22:57:44;22.30;70.00
37285;DHT22;23172;53.550;9.964;2023-05-21T23:02:47;22.20;70.00
37285;DHT22;23172;53.550;9.964;2023-05-21T23:07:50;22.20;69.70
37285;DHT22;23172;53.550;9.964;2023-05-21T23:12:52;22.20;69.60
37285;DHT22;23172;53.550;9.964;2023-05-21T23:17:54;22.10;69.40
37285;DHT22;23172;53.550;9.964;2023-05-21T23:22:57;22.10;69.10
37285;DHT22;23172;53.550;9.964;2023-05-21T23:27:59;22.00;69.00
37285;DHT22;23172;53.550;9.964;2023-05-21T23:33:01;22.00;68.80
37285;DHT22;23172;53.550;9.964;2023-05-21T23:38:04;22.00;68.70
37285;DHT22;23172;53.550;9.964;2023-05-21T23:43:06;22.00;68.60
37285;DHT22;23172;53.550;9.964;2023-05-21T23:48:08;21.90;68.50
37285;DHT22;23172;53.550;9.964;2023-05-21T23:53:12;21.90;68.40
37285;DHT22;23172;53.550;9.964;2023-05-21T23:58:14;21.90;68.30
